Time;durP1;ratioP1;P1;durP2;ratioP2;P2;SDS_P1;SDS_P2;PMS_P1;PMS_P2;Temp;Humidity;BMP_temperature;BMP_pressure;BME280_temperature;BME280_humidity;BME280_pressure;Samples;Min_cycle;Max_cycle;Signal;HPM_P1;HPM_P2
2023/03/05 00:00:36;;;;;;;14.32;1.90;;;;;;;1.03;100.00;100099.34;5018964;28;20029;-72
2023/03/05 00:03:01;;;;;;;13.80;1.65;;;;;;;0.85;100.00;100077.94;5008256;28;20120;-73
2023/03/05 00:05:26;;;;;;;5.37;1.27;;;;;;;0.89;100.00;100146.88;5019555;28;20068;-73
2023/03/05 00:07:52;;;;;;;10.70;1.57;;;;;;;0.82;100.00;100121.06;5020568;28;20668;-72
2023/03/05 00:10:17;;;;;;;10.83;1.50;;;;;;;0.89;100.00;100158.25;5023870;28;20032;-73
2023/03/05 00:12:42;;;;;;;6.80;1.60;;;;;;;0.91;100.00;100147.59;5018942;28;20284;-72
2023/03/05 00:15:08;;;;;;;7.40;1.53;;;;;;;0.84;100.00;100123.56;5021217;28;20113;-73
2023/03/05 00:17:34;;;;;;;11.38;2.58;;;;;;;0.80;100.00;100122.16;5018851;28;20775;-72
2023/03/05 00:19:59;;;;;;;10.13;1.43;;;;;;;0.75;100.00;100104.09;5021214;28;20107;-75
2023/03/05 00:22:25;;;;;;;5.33;1.67;;;;;;;0.66;100.00;100077.69;5017988;28;20700;-75
2023/03/05 00:24:50;;;;;;;6.57;1.63;;;;;;;0.64;100.00;100117.19;5018659;28;21632;-74
2023/03/05 00:27:16;;;;;;;12.88;1.95;;;;;;;0.49;100.00;100116.56;5020482;28;20397;-73
2023/03/05 00:29:41;;;;;;;14.13;2.13;;;;;;;0.62;100.00;100172.47;5034103;28;20502;-73
2023/03/05 00:32:06;;;;;;;20.60;2.83;;;;;;;0.66;100.00;100173.09;5023820;28;20041;-72
2023/03/05 00:34:32;;;;;;;16.50;3.50;;;;;;;0.65;100.00;100171.41;5018576;28;20120;-72
2023/03/05 00:36:57;;;;;;;14.30;2.50;;;;;;;0.61;100.00;100139.28;5024001;28;20276;-71
2023/03/05 00:39:23;;;;;;;14.85;1.85;;;;;;;0.65;100.00;100092.56;5022537;28;20295;-72
2023/03/05 00:41:49;;;;;;;;;;;;;;;0.67;100.00;99972.44;5027256;28;20092;-72
2023/03/05 00:44:14;;;;;;;9.63;1.60;;;;;;;0.56;100.00;99868.22;5035940;28;20320;-74
2023/03/05 00:46:40;;;;;;;9.40;2.35;;;;;;;0.58;100.00;99842.66;5028083;28;20048;-76
2023/03/05 00:49:06;;;;;;;6.15;2.30;;;;;;;0.59;100.00;99806.72;5007311;28;20025;-72
2023/03/05 00:51:31;;;;;;;10.73;1.48;;;;;;;0.44;100.00;99758.84;5016765;28;20029;-72
2023/03/05 00:53:57;;;;;;;8.10;1.88;;;;;;;0.61;100.00;99726.84;5007226;28;20409;-71
2023/03/05 00:56:22;;;;;;;10.30;2.63;;;;;;;0.59;100.00;99654.38;5006346;28;20485;-73
2023/03/05 00:58:48;;;;;;;6.53;1.33;;;;;;;0.59;100.00;99636.81;5035713;28;20288;-72
2023/03/05 01:01:13;;;;;;;9.70;1.75;;;;;;;0.54;100.00;99546.22;5023467;28;20029;-72
2023/03/05 01:03:39;;;;;;;6.38;1.25;;;;;;;0.52;100.00;99499.09;5004538;28;20036;-72
2023/03/05 01:06:11;;;;;;;9.50;1.55;;;;;;;0.61;100.00;99484.34;5023425;28;20064;-75
2023/03/05 01:08:37;;;;;;;10.13;2.42;;;;;;;0.59;100.00;99452.13;5016757;28;20044;-72
2023/03/05 01:11:04;;;;;;;10.25;1.88;;;;;;;0.55;100.00;99459.41;5023177;28;20025;-72
2023/03/05 01:13:29;;;;;;;11.10;2.03;;;;;;;0.44;100.00;99461.28;5016832;28;20152;-74
2023/03/05 01:15:55;;;;;;;5.72;1.58;;;;;;;0.49;100.00;99494.09;5035107;28;20120;-75
2023/03/05 01:18:20;;;;;;;4.65;1.48;;;;;;;0.47;100.00;99510.91;5019218;28;20036;-72
2023/03/05 01:20:46;;;;;;;7.88;2.13;;;;;;;0.40;100.00;99506.19;5005166;28;20034;-72
2023/03/05 01:23:12;;;;;;;4.53;1.73;;;;;;;0.47;100.00;99542.44;5023039;28;20041;-72
2023/03/05 01:25:38;;;;;;;10.98;2.30;;;;;;;0.53;100.00;99537.50;5016558;28;20495;-71
2023/03/05 01:28:04;;;;;;;11.85;1.73;;;;;;;0.49;100.00;99503.75;5023355;28;20053;-71
2023/03/05 01:30:31;;;;;;;9.52;1.27;;;;;;;0.53;100.00;99492.03;5018553;28;20082;-72
2023/03/05 01:32:56;;;;;;;8.13;1.50;;;;;;;0.45;100.00;99444.59;5015841;28;20463;-72
2023/03/05 01:35:23;;;;;;;8.90;1.58;;;;;;;0.45;100.00;99447.22;5017576;28;20048;-72
2023/03/05 01:37:49;;;;;;;8.88;1.70;;;;;;;0.46;100.00;99414.72;5019358;28;20034;-72
2023/03/05 01:40:18;;;;;;;8.95;1.80;;;;;;;0.48;100.00;99415.44;5020067;28;20033;-74
2023/03/05 01:42:46;;;;;;;14.68;1.58;;;;;;;0.51;100.00;99402.03;5017051;28;20418;-72
2023/03/05 01:45:17;;;;;;;8.05;1.13;;;;;;;0.41;100.00;99355.53;5022907;28;20026;-71
2023/03/05 01:47:43;;;;;;;11.20;2.45;;;;;;;0.31;100.00;99346.81;5016970;28;20049;-72
2023/03/05 01:50:10;;;;;;;;;;;;;;;0.35;100.00;99403.34;5020420;28;20351;-71
2023/03/05 01:52:39;;;;;;;12.93;1.95;;;;;;;0.26;100.00;99345.50;5023212;28;19921;-73
2023/03/05 01:55:10;;;;;;;8.57;1.65;;;;;;;0.19;100.00;99406.44;5026637;28;20040;-75
2023/03/05 01:57:42;;;;;;;7.35;1.70;;;;;;;0.26;100.00;99421.66;5021490;28;20037;-72
2023/03/05 02:00:12;;;;;;;10.00;1.35;;;;;;;0.30;100.00;99413.38;5010649;28;20394;-75
2023/03/05 02:02:43;;;;;;;8.10;2.58;;;;;;;0.22;100.00;99376.47;5020222;28;20028;-71
2023/03/05 02:05:26;;;;;;;6.15;1.80;;;;;;;0.30;100.00;99415.19;5009780;28;20029;-74
2023/03/05 02:08:06;;;;;;;8.32;2.83;;;;;;;0.26;100.00;99388.38;5038331;28;20485;-71
2023/03/05 02:10:40;;;;;;;9.15;3.03;;;;;;;0.19;100.00;99346.06;5020750;28;20164;-72
2023/03/05 02:13:12;;;;;;;9.18;1.45;;;;;;;0.11;100.00;99310.91;5026501;28;20120;-73
2023/03/05 02:15:38;;;;;;;33.90;3.17;;;;;;;0.09;100.00;99339.91;5021924;28;20509;-71
2023/03/05 02:18:04;;;;;;;;;;;;;;;0.12;100.00;99336.22;5027208;28;20021;-71
2023/03/05 02:20:44;;;;;;;10.65;1.60;;;;;;;0.13;100.00;99294.06;5022206;28;20055;-75
2023/03/05 02:23:09;;;;;;;12.57;2.35;;;;;;;0.07;100.00;99200.16;5020678;28;20038;-74
2023/03/05 02:25:35;;;;;;;6.15;1.33;;;;;;;-0.01;100.00;99200.78;5035749;28;20033;-74
2023/03/05 02:28:10;;;;;;;5.75;1.08;;;;;;;-0.01;100.00;99203.41;5008363;28;20098;-71
2023/03/05 02:30:37;;;;;;;3.22;1.27;;;;;;;-0.08;100.00;99155.06;5023105;28;20073;-71
2023/03/05 02:33:03;;;;;;;8.00;2.17;;;;;;;-0.11;100.00;99144.84;5021791;28;20025;-73
2023/03/05 02:35:28;;;;;;;7.35;1.67;;;;;;;-0.16;100.00;99091.13;5021012;28;20087;-71
2023/03/05 02:37:53;;;;;;;11.25;3.38;;;;;;;-0.12;100.00;99074.13;5038091;28;20122;-72
2023/03/05 02:40:19;;;;;;;11.87;1.40;;;;;;;-0.16;100.00;99031.63;5009599;28;20045;-75
2023/03/05 02:42:45;;;;;;;8.88;1.63;;;;;;;-0.18;100.00;99022.22;5021514;28;20392;-75
2023/03/05 02:45:12;;;;;;;5.35;1.25;;;;;;;-0.06;100.00;99011.47;5026164;28;20029;-72
2023/03/05 02:47:37;;;;;;;8.82;1.40;;;;;;;-0.04;100.00;98992.97;5019209;28;20091;-74
2023/03/05 02:50:04;;;;;;;7.15;1.65;;;;;;;-0.01;100.00;99004.00;5025755;28;20035;-72
2023/03/05 02:52:30;;;;;;;6.68;0.90;;;;;;;-0.13;100.00;98999.03;5020673;28;20048;-71
2023/03/05 02:54:55;;;;;;;9.68;1.35;;;;;;;-0.26;100.00;99034.22;5037574;28;20030;-73
2023/03/05 02:57:22;;;;;;;28.00;2.15;;;;;;;-0.36;100.00;99093.69;5024896;28;20033;-71
2023/03/05 02:59:48;;;;;;;10.80;1.35;;;;;;;-0.25;100.00;99151.28;5020342;28;20026;-72
2023/03/05 03:02:14;;;;;;;10.43;1.70;;;;;;;-0.26;100.00;99133.03;5022408;28;20103;-71
2023/03/05 03:04:39;;;;;;;5.97;1.75;;;;;;;-0.22;100.00;99153.63;5004463;28;20486;-74
2023/03/05 03:07:05;;;;;;;7.88;1.58;;;;;;;-0.29;100.00;99151.69;5025427;28;20091;-71
2023/03/05 03:09:33;;;;;;;6.47;1.97;;;;;;;-0.23;100.00;99193.13;5018889;28;20027;-72
2023/03/05 03:11:58;;;;;;;6.05;1.33;;;;;;;-0.32;100.00;99194.72;5018970;28;20292;-72
2023/03/05 03:14:23;;;;;;;7.30;1.42;;;;;;;-0.30;100.00;99241.81;5024233;28;20071;-72
2023/03/05 03:16:49;;;;;;;9.88;2.08;;;;;;;-0.41;100.00;99247.13;5020846;28;20124;-72
2023/03/05 03:19:14;;;;;;;6.43;1.00;;;;;;;-0.35;100.00;99326.13;5020799;28;20034;-75
2023/03/05 03:21:40;;;;;;;14.80;2.13;;;;;;;-0.20;100.00;99402.69;5019617;28;20026;-73
2023/03/05 03:24:05;;;;;;;7.40;1.70;;;;;;;-0.12;100.00;99472.91;5025077;28;20741;-72
2023/03/05 03:26:30;;;;;;;9.57;0.88;;;;;;;-0.07;100.00;99496.97;5018157;28;20038;-72
2023/03/05 03:28:56;;;;;;;10.77;2.72;;;;;;;-0.01;100.00;99491.22;5031430;28;20509;-72
2023/03/05 03:31:22;;;;;;;10.05;2.13;;;;;;;-0.04;100.00;99491.50;5020424;28;20394;-72
2023/03/05 03:33:47;;;;;;;10.93;0.98;;;;;;;-0.06;100.00;99494.22;5020211;28;20076;-73
2023/03/05 03:36:12;;;;;;;8.93;1.40;;;;;;;-0.11;100.00;99485.91;5024887;28;20515;-73
2023/03/05 03:38:38;;;;;;;11.98;1.92;;;;;;;-0.06;100.00;99515.22;5019416;28;20293;-73
2023/03/05 03:41:07;;;;;;;6.87;1.23;;;;;;;-0.13;100.00;99535.03;5024689;28;20032;-71
2023/03/05 03:43:34;;;;;;;8.32;2.20;;;;;;;-0.01;100.00;99604.06;5020507;28;20778;-72
2023/03/05 03:46:02;;;;;;;13.68;1.75;;;;;;;-0.02;100.00;99582.25;5024951;28;20027;-72
2023/03/05 03:48:27;;;;;;;8.75;1.40;;;;;;;0.02;100.00;99603.81;5022988;28;20542;-74
2023/03/05 03:50:52;;;;;;;5.95;1.77;;;;;;;0.06;100.00;99613.09;5036079;28;20036;-71
2023/03/05 03:53:18;;;;;;;7.53;1.80;;;;;;;0.14;100.00;99615.09;5021024;28;20045;-72
2023/03/05 03:55:45;;;;;;;5.05;0.90;;;;;;;0.18;100.00;99611.28;5019543;28;20041;-72
2023/03/05 03:58:10;;;;;;;5.32;1.60;;;;;;;0.30;100.00;99615.53;5005890;28;20515;-74
2023/03/05 04:00:36;;;;;;;10.73;1.60;;;;;;;0.28;100.00;99574.63;5020168;28;20393;-72
2023/03/05 04:03:01;;;;;;;7.07;2.33;;;;;;;0.23;100.00;99571.53;5021136;28;20520;-74
2023/03/05 04:05:26;;;;;;;6.27;0.80;;;;;;;0.27;100.00;99555.41;5022746;28;20048;-72
2023/03/05 04:07:52;;;;;;;7.80;1.10;;;;;;;0.28;100.00;99528.22;5020596;28;20280;-72
2023/03/05 04:10:17;;;;;;;5.40;0.90;;;;;;;0.30;100.00;99489.53;5022750;28;20021;-72
2023/03/05 04:12:44;;;;;;;7.55;1.75;;;;;;;0.26;100.00;99469.75;5018320;28;20041;-71
2023/03/05 04:15:10;;;;;;;9.43;1.40;;;;;;;0.27;100.00;99473.22;5019753;28;20091;-73
2023/03/05 04:17:36;;;;;;;6.30;1.45;;;;;;;0.34;100.00;99475.19;5017993;28;20030;-73
2023/03/05 04:20:03;;;;;;;12.52;1.27;;;;;;;0.29;100.00;99469.50;5019254;28;20132;-71
2023/03/05 04:22:29;;;;;;;15.80;2.65;;;;;;;0.34;100.00;99496.19;5005585;28;20441;-72
2023/03/05 04:24:54;;;;;;;9.45;1.30;;;;;;;0.32;100.00;99540.13;5035580;28;20122;-72
2023/03/05 04:27:19;;;;;;;7.50;2.33;;;;;;;0.35;100.00;99629.16;5022653;28;20060;-72
2023/03/05 04:29:45;;;;;;;10.73;3.33;;;;;;;0.29;100.00;99712.81;5034237;28;20168;-72
2023/03/05 04:32:10;;;;;;;8.77;2.40;;;;;;;0.38;100.00;99843.38;5019648;28;20045;-72
2023/03/05 04:34:37;;;;;;;7.07;1.40;;;;;;;0.32;100.00;99899.81;5033592;28;20030;-73
2023/03/05 04:37:02;;;;;;;5.32;1.38;;;;;;;0.27;100.00;99954.47;5019996;28;20083;-72
2023/03/05 04:39:28;;;;;;;9.15;1.58;;;;;;;0.23;100.00;100009.97;5019372;28;20041;-72
2023/03/05 04:41:53;;;;;;;5.63;1.48;;;;;;;0.25;100.00;100074.53;5034643;28;20087;-72
2023/03/05 04:44:20;;;;;;;6.33;1.17;;;;;;;0.25;100.00;100116.53;5020097;28;20029;-72
2023/03/05 04:46:46;;;;;;;7.65;1.20;;;;;;;0.25;100.00;100153.28;5019350;28;20275;-72
2023/03/05 04:49:11;;;;;;;8.60;2.35;;;;;;;0.24;100.00;100172.63;5023295;28;20033;-72
2023/03/05 04:51:36;;;;;;;5.85;1.35;;;;;;;0.19;100.00;100185.25;5016600;28;20081;-72
2023/03/05 04:54:02;;;;;;;8.40;1.57;;;;;;;0.18;100.00;100204.56;5020044;28;20356;-72
2023/03/05 04:56:27;;;;;;;10.57;1.90;;;;;;;0.14;100.00;100229.34;5019519;28;20095;-73
2023/03/05 04:58:53;;;;;;;4.67;2.27;;;;;;;0.18;100.00;100259.69;5018881;28;20029;-72
2023/03/05 05:01:18;;;;;;;10.57;1.60;;;;;;;-0.01;100.00;100241.78;5005573;28;20276;-72
2023/03/05 05:03:43;;;;;;;8.88;1.90;;;;;;;0.03;100.00;100279.16;5032712;28;20300;-72
2023/03/05 05:06:09;;;;;;;7.23;1.60;;;;;;;-0.01;100.00;100281.97;5017733;28;20033;-72
2023/03/05 05:08:35;;;;;;;5.60;1.23;;;;;;;-0.01;100.00;100302.16;5017862;28;20281;-72
2023/03/05 05:11:06;;;;;;;19.85;3.22;;;;;;;-0.05;100.00;100300.66;5022923;28;20025;-72
2023/03/05 05:13:33;;;;;;;4.88;1.67;;;;;;;-0.08;100.00;100291.22;5019669;28;20103;-72
2023/03/05 05:15:59;;;;;;;13.32;1.25;;;;;;;-0.13;100.00;100309.06;5018284;28;20033;-72
2023/03/05 05:18:24;;;;;;;3.40;1.38;;;;;;;-0.13;100.00;100314.31;5018365;28;20044;-72
2023/03/05 05:20:50;;;;;;;7.90;1.65;;;;;;;-0.14;100.00;100333.66;5033916;28;20084;-72
2023/03/05 05:23:16;;;;;;;4.65;1.77;;;;;;;-0.14;100.00;100349.38;5022483;28;20474;-72
2023/03/05 05:25:42;;;;;;;7.72;1.27;;;;;;;-0.13;100.00;100356.31;5019825;28;20083;-72
2023/03/05 05:28:09;;;;;;;11.00;1.77;;;;;;;-0.24;100.00;100345.69;5025979;28;20041;-72
2023/03/05 05:30:34;;;;;;;6.57;1.85;;;;;;;-0.18;100.00;100363.66;5021609;28;20781;-72
2023/03/05 05:32:59;;;;;;;5.75;1.02;;;;;;;-0.14;100.00;100375.63;5023931;28;20033;-72
2023/03/05 05:35:25;;;;;;;4.28;1.10;;;;;;;-0.16;100.00;100371.44;5022274;28;20382;-72
2023/03/05 05:37:50;;;;;;;9.65;1.73;;;;;;;-0.22;100.00;100365.63;5038309;28;20077;-72
2023/03/05 05:40:16;;;;;;;4.38;0.63;;;;;;;-0.32;100.00;100363.75;5026665;28;20108;-72
2023/03/05 05:42:41;;;;;;;5.22;0.85;;;;;;;-0.29;100.00;100390.59;5020195;28;20088;-72
2023/03/05 05:45:07;;;;;;;7.13;1.25;;;;;;;-0.36;100.00;100372.75;5021923;28;20033;-72
2023/03/05 05:47:33;;;;;;;11.60;0.82;;;;;;;-0.37;100.00;100386.81;5020046;28;20029;-72
2023/03/05 05:49:58;;;;;;;3.38;1.52;;;;;;;-0.36;100.00;100407.69;5023376;28;20033;-72
2023/03/05 05:52:24;;;;;;;12.63;2.13;;;;;;;-0.33;100.00;100404.00;5022274;28;20049;-72
2023/03/05 05:54:49;;;;;;;3.10;1.00;;;;;;;-0.37;100.00;100405.19;5022477;28;20302;-72
2023/03/05 05:57:14;;;;;;;6.18;2.47;;;;;;;-0.33;100.00;100404.00;5023632;28;20398;-72
2023/03/05 05:59:40;;;;;;;9.35;1.05;;;;;;;-0.38;100.00;100399.06;5036420;28;20021;-72
2023/03/05 06:02:06;;;;;;;14.05;1.88;;;;;;;-0.39;100.00;100400.03;5022904;28;20497;-72
2023/03/05 06:04:33;;;;;;;9.70;1.83;;;;;;;-0.46;100.00;100388.25;5021875;28;20248;-72
2023/03/05 06:06:59;;;;;;;5.68;0.85;;;;;;;-0.44;100.00;100402.09;5026224;28;20029;-72
2023/03/05 06:09:24;;;;;;;4.40;1.63;;;;;;;-0.40;100.00;100413.22;5008324;28;20040;-72
2023/03/05 06:11:50;;;;;;;5.75;1.10;;;;;;;-0.50;100.00;100392.84;5022191;28;20099;-72
2023/03/05 06:14:15;;;;;;;7.80;2.17;;;;;;;-0.41;100.00;100411.56;5025875;28;20513;-72
2023/03/05 06:16:40;;;;;;;8.77;1.50;;;;;;;-0.32;100.00;100405.72;5021092;28;20030;-72
2023/03/05 06:19:10;;;;;;;9.30;1.10;;;;;;;-0.34;100.00;100376.94;5025829;28;20037;-72
2023/03/05 06:21:35;;;;;;;4.45;1.40;;;;;;;-0.33;100.00;100378.66;5020384;28;20045;-72
2023/03/05 06:24:01;;;;;;;13.95;1.33;;;;;;;-0.34;100.00;100355.13;5023052;28;20029;-72
2023/03/05 06:26:26;;;;;;;9.27;1.77;;;;;;;-0.37;100.00;100345.69;5019661;28;20464;-72
2023/03/05 06:28:52;;;;;;;7.00;0.80;;;;;;;-0.33;100.00;100362.91;5022197;28;20521;-72
2023/03/05 06:31:26;;;;;;;10.40;1.63;;;;;;;-0.37;100.00;100350.09;5020729;28;20029;-72
2023/03/05 06:33:55;;;;;;;11.07;1.30;;;;;;;-0.25;100.00;100362.38;5021882;28;20490;-72
2023/03/05 06:36:23;;;;;;;13.07;1.25;;;;;;;-0.18;100.00;100350.53;5007288;28;20409;-72
2023/03/05 06:38:49;;;;;;;14.25;1.75;;;;;;;-0.12;100.00;100370.25;5019673;28;20376;-72
2023/03/05 06:41:18;;;;;;;6.97;1.35;;;;;;;-0.06;100.00;100357.56;5021619;28;20033;-72
2023/03/05 06:43:44;;;;;;;10.32;2.00;;;;;;;-0.19;100.00;100311.25;5019619;28;20041;-72
2023/03/05 06:46:14;;;;;;;6.57;1.10;;;;;;;-0.07;100.00;100331.41;5008662;28;20472;-72
2023/03/05 06:48:39;;;;;;;3.40;1.50;;;;;;;0.00;100.00;100327.47;5021879;28;20391;-72
2023/03/05 06:51:11;;;;;;;4.60;0.70;;;;;;;0.09;100.00;100303.19;5021835;28;20093;-72
2023/03/05 06:53:37;;;;;;;3.10;1.08;;;;;;;0.12;100.00;100278.53;5018651;28;20038;-72
2023/03/05 06:56:02;;;;;;;6.25;1.55;;;;;;;0.11;100.00;100250.59;5021360;28;20387;-72
2023/03/05 06:58:28;;;;;;;5.68;1.10;;;;;;;0.25;100.00;100242.56;5022341;28;20037;-72
2023/03/05 07:00:53;;;;;;;4.40;1.27;;;;;;;0.35;100.00;100222.59;5036782;28;20385;-72
2023/03/05 07:03:18;;;;;;;3.72;1.50;;;;;;;0.67;100.00;100237.81;5024143;28;20029;-72
2023/03/05 07:05:44;;;;;;;6.38;1.20;;;;;;;0.87;100.00;100181.19;5023946;28;20495;-72
2023/03/05 07:08:09;;;;;;;9.07;1.85;;;;;;;1.18;100.00;100136.81;5025374;28;20041;-72
2023/03/05 07:10:39;;;;;;;7.88;1.25;;;;;;;1.23;100.00;100046.06;5017465;28;20080;-72
2023/03/05 07:13:04;;;;;;;3.63;0.68;;;;;;;1.50;100.00;100002.78;5006946;28;20571;-72
2023/03/05 07:15:30;;;;;;;8.60;2.15;;;;;;;1.76;100.00;99949.84;5017624;28;20108;-72
2023/03/05 07:17:55;;;;;;;4.13;0.88;;;;;;;1.65;100.00;99796.31;5018163;28;20112;-72
2023/03/05 07:20:21;;;;;;;3.77;1.27;;;;;;;1.77;100.00;99759.41;5023823;28;20036;-72
2023/03/05 07:22:46;;;;;;;3.77;1.43;;;;;;;1.67;100.00;99654.09;5035705;28;20360;-73
2023/03/05 07:25:12;;;;;;;6.17;1.27;;;;;;;2.03;100.00;99678.19;5025041;28;20029;-72
2023/03/05 07:27:37;;;;;;;11.55;1.40;;;;;;;1.79;100.00;99531.97;5018267;28;20041;-73
2023/03/05 07:30:04;;;;;;;5.75;1.67;;;;;;;2.14;100.00;99564.03;5021868;28;20026;-73
2023/03/05 07:32:29;;;;;;;11.25;2.65;;;;;;;2.18;100.00;99479.34;5017093;28;20042;-72
2023/03/05 07:34:55;;;;;;;15.70;1.80;;;;;;;2.20;100.00;99424.75;5023614;28;20034;-72
2023/03/05 07:37:20;;;;;;;8.00;2.00;;;;;;;2.59;100.00;99447.53;5024643;28;20056;-73
2023/03/05 07:39:45;;;;;;;5.90;1.90;;;;;;;2.71;100.00;99346.22;5021760;28;20030;-73
2023/03/05 07:42:11;;;;;;;4.17;0.90;;;;;;;3.28;100.00;99373.25;5021264;28;20174;-73
2023/03/05 07:44:49;;;;;;;11.65;2.35;;;;;;;3.37;100.00;99140.19;5023816;28;20034;-73
2023/03/05 07:47:15;;;;;;;5.55;1.15;;;;;;;3.59;100.00;99053.56;5021145;28;20033;-73
2023/03/05 07:49:40;;;;;;;7.75;1.70;;;;;;;3.65;100.00;98897.19;5017764;28;20025;-72
2023/03/05 07:52:07;;;;;;;3.03;0.70;;;;;;;3.33;100.00;98595.47;5023928;28;20061;-73
2023/03/05 07:54:36;;;;;;;5.43;1.42;;;;;;;3.92;100.00;98705.16;5017810;28;20128;-73
2023/03/05 07:57:03;;;;;;;5.20;1.20;;;;;;;4.27;100.00;98650.22;5024356;28;20055;-73
2023/03/05 07:59:29;;;;;;;10.00;1.20;;;;;;;4.28;100.00;98454.53;5020328;28;20044;-73
2023/03/05 08:01:55;;;;;;;4.78;1.00;;;;;;;4.36;100.00;98308.38;5020704;28;20025;-73
2023/03/05 08:04:20;;;;;;;4.38;1.75;;;;;;;5.11;100.00;98418.34;5020206;28;20402;-73
2023/03/05 08:06:46;;;;;;;5.23;1.50;;;;;;;4.86;97.99;98069.63;5019642;28;20029;-73
2023/03/05 08:09:12;;;;;;;8.93;1.55;;;;;;;5.01;97.51;98092.53;5010514;28;20029;-73
2023/03/05 08:11:38;;;;;;;5.32;1.20;;;;;;;5.41;94.31;97956.06;5020684;28;20040;-73
2023/03/05 08:14:04;;;;;;;8.23;1.77;;;;;;;5.52;92.30;97842.69;5020882;28;20025;-73
2023/03/05 08:16:30;;;;;;;3.58;1.20;;;;;;;5.00;89.97;97483.56;5016441;28;20042;-73
2023/03/05 08:18:56;;;;;;;7.05;0.95;;;;;;;4.09;87.99;97137.56;5020768;28;20129;-72
2023/03/05 08:21:28;;;;;;;4.15;0.80;;;;;;;3.68;88.11;97121.06;5018531;28;20029;-73
2023/03/05 08:23:57;;;;;;;10.30;1.00;;;;;;;4.11;88.30;97342.25;5018863;28;20033;-73
2023/03/05 08:26:24;;;;;;;10.23;1.02;;;;;;;4.34;87.41;97333.09;5018930;28;20025;-72
2023/03/05 08:28:51;;;;;;;8.05;1.58;;;;;;;4.28;85.99;97183.38;5018435;28;20037;-73
2023/03/05 08:31:17;;;;;;;;;;;;;;;4.31;85.12;97167.94;5020593;28;20497;-73
2023/03/05 08:33:43;;;;;;;6.85;1.63;;;;;;;4.92;85.74;97456.56;5017856;28;20358;-73
2023/03/05 08:36:08;;;;;;;5.30;1.35;;;;;;;4.96;83.20;97174.88;5023584;28;20092;-73
2023/03/05 08:38:34;;;;;;;5.50;2.08;;;;;;;4.90;81.62;97006.59;5018314;28;20084;-73
2023/03/05 08:41:00;;;;;;;7.80;1.00;;;;;;;3.88;81.59;96693.50;5019872;28;20076;-72
2023/03/05 08:43:25;;;;;;;5.57;1.00;;;;;;;4.26;82.90;97100.91;5020965;28;20459;-72
2023/03/05 08:45:52;;;;;;;9.77;1.93;;;;;;;4.50;82.61;97190.00;5034460;28;20049;-73
2023/03/05 08:48:19;;;;;;;7.22;1.55;;;;;;;4.90;81.39;97154.63;5018619;28;20033;-73
2023/03/05 08:50:44;;;;;;;5.25;0.98;;;;;;;5.40;80.38;97179.22;5033496;28;20036;-73
2023/03/05 08:53:10;;;;;;;5.60;1.02;;;;;;;5.98;79.35;97280.56;5023029;28;20479;-73
2023/03/05 08:55:36;;;;;;;1.90;0.70;;;;;;;7.16;77.55;97401.47;5032780;28;20470;-73
2023/03/05 08:58:01;;;;;;;8.63;1.05;;;;;;;6.80;74.83;96901.19;5025322;28;20033;-72
2023/03/05 09:00:27;;;;;;;5.47;1.13;;;;;;;6.11;75.12;96806.38;5007212;28;20047;-73
2023/03/05 09:02:52;;;;;;;3.90;1.13;;;;;;;5.50;74.63;96527.91;5025193;28;20026;-74
2023/03/05 09:05:18;;;;;;;4.30;1.17;;;;;;;6.18;74.49;96864.53;5024078;28;20037;-73
2023/03/05 09:07:44;;;;;;;3.50;1.35;;;;;;;6.33;73.35;96737.75;5021593;28;20143;-73
2023/03/05 09:10:12;;;;;;;6.13;0.85;;;;;;;7.69;72.72;97177.75;5018868;28;20478;-73
2023/03/05 09:12:42;;;;;;;4.20;1.27;;;;;;;7.92;70.45;96916.66;5023583;28;20045;-73
2023/03/05 09:15:10;;;;;;;7.90;1.42;;;;;;;9.18;69.49;97257.91;5025399;28;20634;-73
2023/03/05 09:17:37;;;;;;;10.13;1.15;;;;;;;8.78;67.69;96892.53;5025238;28;20025;-73
2023/03/05 09:20:04;;;;;;;7.10;0.93;;;;;;;8.51;65.08;96386.53;5025405;28;20035;-73
2023/03/05 09:22:30;;;;;;;6.78;1.00;;;;;;;7.49;64.64;95973.28;5019553;28;20486;-73
2023/03/05 09:24:55;;;;;;;5.53;0.82;;;;;;;6.78;64.31;95702.53;5027587;28;20038;-74
2023/03/05 09:27:21;;;;;;;3.87;1.20;;;;;;;8.66;64.72;96697.69;5022289;28;20025;-74
2023/03/05 09:29:47;;;;;;;7.15;2.03;;;;;;;7.92;64.49;96364.28;5019062;28;20034;-74
2023/03/05 09:32:12;;;;;;;6.87;1.33;;;;;;;8.70;63.39;96486.09;5023092;28;20044;-74
2023/03/05 09:34:37;;;;;;;7.40;1.07;;;;;;;7.30;63.65;95927.78;5016808;28;20044;-73
2023/03/05 09:37:03;;;;;;;2.57;1.30;;;;;;;6.32;64.35;95793.19;5026045;28;20465;-74
2023/03/05 09:39:29;;;;;;;6.38;1.10;;;;;;;5.87;66.14;96022.84;5019185;28;20057;-73
2023/03/05 09:42:06;;;;;;;5.32;0.90;;;;;;;5.50;67.14;96153.13;5036401;28;20041;-73
2023/03/05 09:44:56;;;;;;;4.20;1.23;;;;;;;5.95;65.42;96267.03;5023708;28;20191;-73
2023/03/05 09:47:49;;;;;;;9.95;1.45;;;;;;;6.30;64.94;96227.03;5023730;28;20030;-73
2023/03/05 09:50:37;;;;;;;7.15;0.98;;;;;;;5.47;65.55;95986.94;5033417;28;20044;-73
2023/03/05 09:53:30;;;;;;;8.52;1.05;;;;;;;7.02;66.79;96963.19;5018504;28;20033;-73
2023/03/05 09:55:59;;;;;;;9.25;1.45;;;;;;;5.93;65.65;96196.56;5019990;28;20038;-73
2023/03/05 09:58:40;;;;;;;2.97;0.90;;;;;;;6.32;65.46;96461.47;5017776;28;20057;-73
2023/03/05 10:01:19;;;;;;;3.17;0.75;;;;;;;6.25;64.80;96290.50;5015426;28;20088;-73
2023/03/05 10:04:11;;;;;;;5.82;1.52;;;;;;;5.32;65.62;96074.03;5020703;28;20091;-73
2023/03/05 10:06:51;;;;;;;7.50;1.00;;;;;;;4.88;65.75;95941.78;5020051;28;20300;-73
2023/03/05 10:09:40;;;;;;;5.70;1.63;;;;;;;4.99;66.63;96244.81;5019426;28;20037;-73
2023/03/05 10:12:37;;;;;;;3.60;0.77;;;;;;;6.01;65.97;96671.13;5014455;28;20029;-73
2023/03/05 10:15:10;;;;;;;3.95;0.82;;;;;;;5.38;63.82;95893.22;5022418;28;20029;-73
2023/03/05 10:17:49;;;;;;;9.23;0.90;;;;;;;5.80;63.77;96138.69;5021478;28;20042;-73
2023/03/05 10:20:17;;;;;;;7.47;1.20;;;;;;;5.85;63.51;96104.38;5026830;28;20316;-73
2023/03/05 10:23:08;;;;;;;2.50;0.80;;;;;;;5.38;62.80;95782.16;5021856;28;20036;-73
2023/03/05 10:25:33;;;;;;;2.20;0.60;;;;;;;4.58;63.48;95570.53;5022642;28;20175;-72
2023/03/05 10:28:08;;;;;;;6.53;0.77;;;;;;;4.65;64.71;95948.06;5026486;28;20566;-73
2023/03/05 10:30:58;;;;;;;2.13;0.60;;;;;;;4.48;64.40;95837.16;5022535;28;20489;-73
2023/03/05 10:33:45;;;;;;;11.07;1.13;;;;;;;4.38;64.24;95771.81;5024583;28;20163;-72
2023/03/05 10:36:37;;;;;;;4.65;1.27;;;;;;;4.11;64.09;95662.72;5021275;28;20061;-73
2023/03/05 10:39:26;;;;;;;4.45;0.95;;;;;;;4.31;64.64;95918.22;5028446;28;20045;-73
2023/03/05 10:42:09;;;;;;;10.25;1.58;;;;;;;4.12;64.77;95886.81;5024588;28;20073;-73
2023/03/05 10:44:40;;;;;;;3.20;0.73;;;;;;;3.88;65.77;95956.56;5022352;28;20033;-73
2023/03/05 10:47:20;;;;;;;5.28;1.05;;;;;;;3.78;66.19;96050.31;5025562;28;20084;-73
2023/03/05 10:49:51;;;;;;;5.25;0.70;;;;;;;3.96;66.64;96214.78;5024128;28;20038;-73
2023/03/05 10:52:22;;;;;;;12.50;1.25;;;;;;;4.12;66.50;96318.81;5022413;28;20052;-73
2023/03/05 10:54:48;;;;;;;2.92;1.23;;;;;;;4.36;66.02;96336.28;5021784;28;20061;-73
2023/03/05 10:57:21;;;;;;;;;;;;;;;4.20;65.17;96118.69;5026209;28;20124;-73
2023/03/05 10:59:57;;;;;;;3.80;1.02;;;;;;;3.87;64.57;95879.28;5020361;28;19924;-73
2023/03/05 11:02:23;;;;;;;6.80;1.60;;;;;;;3.91;65.40;96053.72;5024796;28;20096;-73
2023/03/05 11:04:51;;;;;;;8.85;1.13;;;;;;;4.12;65.15;96140.19;5023964;28;20046;-73
2023/03/05 11:07:16;;;;;;;3.50;0.90;;;;;;;3.76;64.93;95907.31;5025255;28;20124;-73
2023/03/05 11:10:03;;;;;;;3.23;0.80;;;;;;;3.88;64.79;95967.91;5023618;28;20124;-73
2023/03/05 11:12:32;;;;;;;3.03;0.73;;;;;;;3.72;63.64;95682.03;5021761;28;20037;-73
2023/03/05 11:15:03;;;;;;;3.78;0.70;;;;;;;3.67;63.60;95695.09;5022337;28;20029;-73
2023/03/05 11:17:36;;;;;;;2.10;0.70;;;;;;;3.62;64.00;95747.78;5022313;28;20692;-72
2023/03/05 11:20:30;;;;;;;7.63;0.98;;;;;;;3.76;64.49;95917.84;5036293;28;20478;-72
2023/03/05 11:23:11;;;;;;;3.80;0.70;;;;;;;3.71;64.42;95890.59;5022152;28;20033;-73
2023/03/05 11:25:59;;;;;;;2.88;1.23;;;;;;;3.79;65.10;96001.81;5021472;28;20470;-73
2023/03/05 11:28:51;;;;;;;2.92;0.82;;;;;;;3.73;64.13;95920.97;5023907;28;20033;-73
2023/03/05 11:31:20;;;;;;;3.47;1.52;;;;;;;3.96;64.53;96120.59;5017244;28;20128;-73
2023/03/05 11:33:56;;;;;;;6.45;0.80;;;;;;;4.44;64.70;96372.88;5020581;28;20466;-73
2023/03/05 11:36:36;;;;;;;4.07;0.80;;;;;;;4.57;64.24;96311.13;5025045;28;20035;-73